Impacts TAF Board
For situational awareness. Not to be used for flight planning purposes.
IDs:

KTEX - Telluride Rgnl, CO, US

Issued at 2112 UTC 08 Aug 2020
Updated at 2142 UTC 08 Aug 2020
Potential Impact None Slight Moderate High
Time2135Z 08/22Z 08/23Z 09/00Z 09/01Z 09/02Z 09/03Z 09/04Z 09/05Z 09/06Z 09/07Z 09/08Z 09/09Z 09/10Z>>
Type OBS PRVL PRVL PRVL PRVL PRVL PRVL PRVL PRVL PRVL PRVL PRVL PRVL PRVL
VIS 10 >6 >6 >6 >6 >6 >6 >6 >6 >6 >6 >6 >6 >6
CIG 80 -- -- -- -- -- -- -- -- -- -- -- -- --
Cover BKN SCT SCT SCT SCT FEW FEW FEW FEW SKC SKC SKC SKC SKC
FltCat VFR VFR VFR VFR VFR VFR VFR VFR VFR VFR VFR VFR VFR VFR
WX -- -- -- -- -- -- -- -- -- -- -- -- -- --
WDir 250 230 230 230 230 190 190 190 190 140 140 140 140 140
WSpd 7 8 8 8 8 8 8 8 8 4 4 4 4 4
WGst 14 18 18 18 18 -- -- -- -- -- -- -- -- --
Raw TAF
KTEX 082112Z 0821/0918 23008G18KT P6SM SCT100 SCT250
  FM090200 19008KT P6SM FEW250
  FM090600 14004KT P6SM SKC


Raw METAR
KTEX 082135Z AUTO 25007G14KT 10SM SCT045 SCT060 BKN080 22/M04 A3049 RMK AO2
KTEX 082115Z AUTO 18014G21KT 10SM SCT060 SCT070 BKN110 22/M05 A3048 RMK AO2
KTEX 082055Z AUTO 21005G14KT 10SM BKN110 22/M05 A3049 RMK AO2
KTEX 082035Z AUTO 25007G16KT 10SM BKN110 22/M05 A3050 RMK AO2
KTEX 082015Z AUTO 24006KT 10SM BKN110 22/M06 A3050 RMK AO2
KTEX 081955Z AUTO 27005G14KT 10SM BKN110 22/M03 A3050 RMK AO2
KTEX 081935Z AUTO 30004KT 10SM SCT110 21/M03 A3051 RMK AO2
KTEX 081915Z AUTO 27011KT 10SM CLR 23/M05 A3051 RMK AO2
KTEX 081855Z AUTO 21004KT 10SM SCT120 22/M05 A3051 RMK AO2
KTEX 081835Z AUTO 30005G10KT 10SM BKN120 23/M05 A3052 RMK AO2

METAR Board
Radar Display
Forecast Discussion
For situational awareness. Not to be used for flight planning purposes.